createdAt,value
2022-09-15T00:00:01.961Z,20.90
2022-09-15T00:01:01.939Z,20.83
2022-09-15T00:02:02.094Z,20.76
2022-09-15T00:03:01.920Z,20.56
2022-09-15T00:04:01.904Z,20.48
2022-09-15T00:05:01.844Z,20.26
2022-09-15T00:06:01.884Z,20.22
2022-09-15T00:07:01.852Z,19.92
2022-09-15T00:08:01.826Z,19.87
2022-09-15T00:09:01.808Z,19.82
2022-09-15T00:10:01.860Z,19.75
2022-09-15T00:11:01.780Z,19.62
2022-09-15T00:12:01.773Z,19.49
2022-09-15T00:13:01.875Z,19.42
2022-09-15T00:14:01.900Z,19.39
2022-09-15T00:15:01.728Z,19.31
2022-09-15T00:16:01.745Z,19.31
2022-09-15T00:17:01.840Z,19.34
2022-09-15T00:18:01.720Z,19.31
2022-09-15T00:19:01.705Z,19.35
2022-09-15T00:20:01.723Z,19.34
2022-09-15T00:21:01.668Z,19.35
2022-09-15T00:22:01.660Z,19.31
2022-09-15T00:23:01.660Z,19.39
2022-09-15T00:24:01.652Z,19.40
2022-09-15T00:25:01.631Z,19.27
2022-09-15T00:26:01.626Z,19.23
2022-09-15T00:27:01.635Z,19.09
2022-09-15T00:28:01.640Z,19.06
2022-09-15T00:29:01.611Z,19.06
2022-09-15T00:30:01.643Z,19.06
2022-09-15T00:31:01.646Z,19.12
2022-09-15T00:32:01.549Z,19.07
2022-09-15T00:33:01.536Z,19.15
2022-09-15T00:34:01.576Z,19.23
2022-09-15T00:35:01.544Z,19.15
2022-09-15T00:36:01.538Z,19.21
2022-09-15T00:37:01.494Z,19.25
2022-09-15T00:38:01.483Z,19.16
2022-09-15T00:39:01.494Z,19.28
2022-09-15T00:40:01.601Z,19.20
2022-09-15T00:41:01.453Z,19.24
2022-09-15T00:42:01.446Z,19.21
2022-09-15T00:43:01.515Z,19.16
2022-09-15T00:44:01.467Z,19.27
2022-09-15T00:45:01.417Z,19.39
2022-09-15T00:46:01.474Z,19.39
2022-09-15T00:47:18.170Z,19.46
2022-09-15T00:48:02.371Z,19.47
2022-09-15T00:49:01.399Z,19.50
2022-09-15T00:50:01.355Z,19.50
2022-09-15T00:51:01.408Z,19.50
2022-09-15T00:52:01.355Z,19.35
2022-09-15T00:53:01.314Z,19.31
2022-09-15T00:54:01.363Z,19.32
2022-09-15T00:55:01.302Z,19.28
2022-09-15T00:56:01.279Z,19.31
2022-09-15T00:57:01.281Z,19.32
2022-09-15T00:58:01.285Z,19.25
2022-09-15T00:59:01.250Z,19.25
2022-09-15T01:00:01.255Z,19.24
2022-09-15T01:01:01.308Z,19.27
2022-09-15T01:02:01.327Z,19.27
2022-09-15T01:03:01.300Z,19.27
2022-09-15T01:04:01.198Z,19.31
2022-09-15T01:05:01.195Z,19.31
2022-09-15T01:06:01.187Z,19.27
2022-09-15T01:07:01.168Z,19.34
2022-09-15T01:08:01.154Z,19.34
2022-09-15T01:09:01.160Z,19.30
2022-09-15T01:10:01.158Z,19.27
2022-09-15T01:11:01.130Z,19.15
2022-09-15T01:12:01.101Z,19.21
2022-09-15T01:13:01.089Z,19.15
2022-09-15T01:14:01.091Z,19.23
2022-09-15T01:15:01.082Z,19.13
2022-09-15T01:16:01.138Z,19.20
2022-09-15T01:17:01.088Z,19.21
2022-09-15T01:18:01.128Z,19.12
2022-09-15T01:19:01.120Z,19.06
2022-09-15T01:20:01.014Z,19.06
2022-09-15T01:21:01.021Z,19.07
2022-09-15T01:22:00.992Z,19.07
2022-09-15T01:23:00.986Z,19.06
2022-09-15T01:24:01.008Z,19.12
2022-09-15T01:25:00.999Z,18.97
2022-09-15T01:26:01.064Z,18.94
2022-09-15T01:27:06.572Z,18.93
2022-09-15T01:28:01.924Z,18.93
2022-09-15T01:29:00.933Z,18.91
2022-09-15T01:30:00.909Z,18.89
2022-09-15T01:31:00.956Z,18.84
2022-09-15T01:32:01.113Z,18.84
2022-09-15T01:33:00.907Z,18.74
2022-09-15T01:34:00.892Z,18.74
2022-09-15T01:35:00.920Z,18.71
2022-09-15T01:36:00.832Z,18.66
2022-09-15T01:37:00.841Z,18.65
2022-09-15T01:38:00.826Z,18.69
2022-09-15T01:39:00.854Z,18.79
2022-09-15T01:40:00.837Z,18.82
2022-09-15T01:41:00.818Z,18.97
2022-09-15T01:42:00.772Z,18.97
2022-09-15T01:43:00.777Z,19.01
2022-09-15T01:44:00.772Z,19.24
2022-09-15T01:45:00.756Z,19.30
2022-09-15T01:46:00.843Z,19.38
2022-09-15T01:47:00.741Z,19.35
2022-09-15T01:48:00.703Z,19.49
2022-09-15T01:49:00.727Z,19.45
2022-09-15T01:50:00.719Z,19.40
2022-09-15T01:51:00.721Z,19.52
2022-09-15T01:52:00.664Z,19.53
2022-09-15T01:53:00.660Z,19.47
2022-09-15T01:54:00.691Z,19.68
2022-09-15T01:55:00.647Z,19.60
2022-09-15T01:56:00.642Z,19.67
2022-09-15T01:57:00.653Z,19.65
2022-09-15T01:58:00.650Z,19.72
2022-09-15T01:59:00.612Z,19.62
2022-09-15T02:00:00.572Z,19.52
2022-09-15T02:01:00.646Z,19.60
2022-09-15T02:02:00.615Z,19.57
2022-09-15T02:03:00.646Z,19.50
2022-09-15T02:04:00.566Z,19.50
2022-09-15T02:05:00.542Z,19.61
2022-09-15T02:06:00.522Z,19.57
2022-09-15T02:07:00.546Z,19.58
2022-09-15T02:08:00.548Z,19.58
2022-09-15T02:09:00.519Z,19.60
2022-09-15T02:10:00.456Z,19.53
2022-09-15T02:11:00.451Z,19.49
2022-09-15T02:12:00.475Z,19.49
2022-09-15T02:13:00.456Z,19.50
2022-09-15T02:14:00.442Z,19.49
2022-09-15T02:15:00.433Z,19.40
2022-09-15T02:16:00.542Z,19.49
2022-09-15T02:17:00.411Z,19.34
2022-09-15T02:18:00.393Z,19.49
2022-09-15T02:19:00.379Z,19.46
2022-09-15T02:20:00.369Z,19.53
2022-09-15T02:21:00.356Z,19.45
2022-09-15T02:22:00.349Z,19.50
2022-09-15T02:23:00.386Z,19.62
2022-09-15T02:24:00.346Z,19.71
2022-09-15T02:25:00.394Z,19.72
2022-09-15T02:26:00.304Z,19.67
2022-09-15T02:27:00.273Z,19.68
2022-09-15T02:28:00.293Z,19.71
2022-09-15T02:29:00.273Z,19.68
2022-09-15T02:30:00.233Z,19.62
2022-09-15T02:31:00.251Z,19.71
2022-09-15T02:32:04.930Z,19.65
2022-09-15T02:33:01.223Z,19.79
2022-09-15T02:34:00.223Z,19.72
2022-09-15T02:35:00.187Z,19.76
2022-09-15T02:36:00.164Z,19.79
2022-09-15T02:37:00.214Z,19.89
2022-09-15T02:38:00.193Z,19.80
2022-09-15T02:39:00.145Z,19.86
2022-09-15T02:40:00.349Z,19.86
2022-09-15T02:41:00.118Z,19.92
2022-09-15T02:42:00.138Z,19.89
2022-09-15T02:43:00.093Z,19.86
2022-09-15T02:44:00.110Z,19.86
2022-09-15T02:45:00.077Z,19.94
2022-09-15T02:46:00.143Z,19.97
2022-09-15T02:47:00.054Z,19.94
2022-09-15T02:48:00.102Z,19.85
2022-09-15T02:49:00.072Z,19.95
2022-09-15T02:50:00.037Z,19.85
2022-09-15T02:51:00.000Z,19.94
2022-09-15T02:51:59.989Z,19.87
2022-09-15T02:53:00.012Z,19.85
2022-09-15T02:54:00.005Z,19.82
2022-09-15T02:54:59.978Z,19.76
2022-09-15T02:55:59.947Z,19.76
2022-09-15T02:56:59.982Z,19.71
2022-09-15T02:57:59.940Z,19.68
2022-09-15T02:58:59.915Z,19.62
2022-09-15T02:59:59.930Z,19.60
2022-09-15T03:00:59.972Z,19.53
2022-09-15T03:01:59.946Z,19.50
2022-09-15T03:02:59.874Z,19.57
2022-09-15T03:03:59.893Z,19.62
2022-09-15T03:04:59.865Z,19.65
2022-09-15T03:05:59.840Z,19.68
2022-09-15T03:06:59.849Z,19.71
2022-09-15T03:07:59.845Z,19.60
2022-09-15T03:08:59.841Z,19.60
2022-09-15T03:09:59.831Z,19.61
2022-09-15T03:10:59.820Z,19.61
2022-09-15T03:11:59.792Z,19.70
2022-09-15T03:12:59.781Z,19.67
2022-09-15T03:13:59.757Z,19.58
2022-09-15T03:14:59.744Z,19.71
2022-09-15T03:15:59.815Z,19.68
2022-09-15T03:16:59.718Z,19.60
2022-09-15T03:17:59.746Z,19.61
2022-09-15T03:18:59.700Z,19.60
2022-09-15T03:19:59.698Z,19.61
2022-09-15T03:20:59.701Z,19.52
2022-09-15T03:21:59.710Z,19.55
2022-09-15T03:22:59.655Z,19.58
2022-09-15T03:23:59.670Z,19.65
2022-09-15T03:24:59.657Z,19.50
2022-09-15T03:25:59.649Z,19.31
2022-09-15T03:26:59.606Z,19.28
2022-09-15T03:27:59.622Z,19.07
2022-09-15T03:28:59.632Z,18.89
2022-09-15T03:29:59.578Z,18.79
2022-09-15T03:30:59.635Z,18.69
2022-09-15T03:31:59.667Z,18.66
2022-09-15T03:32:59.541Z,18.56
2022-09-15T03:33:59.600Z,18.39
2022-09-15T03:34:59.537Z,18.39
2022-09-15T03:35:59.518Z,18.36
2022-09-15T03:36:59.496Z,18.32
2022-09-15T03:37:59.512Z,18.20
2022-09-15T03:38:59.501Z,18.25
2022-09-15T03:39:59.519Z,18.32
2022-09-15T03:40:59.482Z,18.35
2022-09-15T03:41:59.488Z,18.41
2022-09-15T03:42:59.429Z,18.34
2022-09-15T03:43:59.440Z,18.41
2022-09-15T03:44:59.420Z,18.38
2022-09-15T03:45:59.435Z,18.34
2022-09-15T03:46:59.393Z,18.36
2022-09-15T03:47:59.428Z,18.36
2022-09-15T03:48:59.376Z,18.36
2022-09-15T03:49:59.359Z,18.36
2022-09-15T03:50:59.338Z,18.41
2022-09-15T03:51:59.341Z,18.47
2022-09-15T03:52:59.321Z,18.39
2022-09-15T03:53:59.341Z,18.34
2022-09-15T03:54:59.358Z,18.32
2022-09-15T03:55:59.354Z,18.47
2022-09-15T03:56:59.318Z,18.41
2022-09-15T03:57:59.289Z,18.46
2022-09-15T03:58:59.257Z,18.36
2022-09-15T03:59:59.243Z,18.46
2022-09-15T04:00:59.342Z,18.38
2022-09-15T04:01:59.350Z,18.29
2022-09-15T04:02:59.249Z,18.36
2022-09-15T04:03:59.232Z,18.34
2022-09-15T04:04:59.186Z,18.29
2022-09-15T04:05:59.177Z,18.28
2022-09-15T04:06:59.190Z,18.34
2022-09-15T04:07:59.156Z,18.20
2022-09-15T04:08:59.177Z,18.21
2022-09-15T04:09:59.157Z,18.20
2022-09-15T04:10:59.134Z,18.20
2022-09-15T04:11:59.115Z,18.19
2022-09-15T04:12:59.144Z,18.16
2022-09-15T04:13:59.143Z,18.23
2022-09-15T04:14:59.081Z,18.10
2022-09-15T04:15:59.154Z,18.17
2022-09-15T04:16:59.075Z,18.09
2022-09-15T04:17:59.041Z,18.13
2022-09-15T04:18:59.113Z,18.05
2022-09-15T04:19:59.023Z,18.04
2022-09-15T04:20:59.017Z,18.01
2022-09-15T04:21:59.001Z,18.02
2022-09-15T04:22:59.003Z,17.99
2022-09-15T04:23:58.995Z,18.09
2022-09-15T04:24:59.035Z,18.17
2022-09-15T04:25:58.959Z,18.19
2022-09-15T04:26:58.963Z,18.20
2022-09-15T04:27:58.933Z,18.36
2022-09-15T04:29:03.660Z,18.39
2022-09-15T04:29:59.929Z,18.57
2022-09-15T04:30:58.954Z,18.54
2022-09-15T04:31:58.890Z,18.54
2022-09-15T04:32:58.933Z,18.56
2022-09-15T04:33:58.899Z,18.68
2022-09-15T04:34:58.861Z,18.72
2022-09-15T04:35:58.860Z,18.74
2022-09-15T04:36:58.847Z,18.71
2022-09-15T04:37:58.833Z,18.78
2022-09-15T04:38:58.904Z,18.75
2022-09-15T04:39:58.891Z,18.83
2022-09-15T04:40:58.817Z,18.86
2022-09-15T04:41:58.812Z,18.83
2022-09-15T04:42:58.799Z,18.83
2022-09-15T04:43:58.762Z,18.82
2022-09-15T04:44:58.796Z,18.91
2022-09-15T04:45:58.763Z,18.84
2022-09-15T04:46:58.786Z,18.90
2022-09-15T04:47:58.744Z,18.90
2022-09-15T04:48:58.887Z,18.96
2022-09-15T04:49:58.715Z,18.91
2022-09-15T04:50:58.751Z,18.94
2022-09-15T04:51:58.699Z,19.01
2022-09-15T04:52:58.750Z,19.01
2022-09-15T04:53:58.687Z,18.93
2022-09-15T04:54:58.790Z,18.93
2022-09-15T04:55:58.642Z,18.94
2022-09-15T04:56:58.684Z,19.05
2022-09-15T04:57:58.648Z,18.99
2022-09-15T04:59:03.453Z,18.99
2022-09-15T04:59:59.594Z,19.01
2022-09-15T05:00:58.676Z,18.94
2022-09-15T05:01:58.682Z,18.96
2022-09-15T05:02:58.612Z,19.05
2022-09-15T05:03:58.538Z,19.12
2022-09-15T05:04:58.566Z,19.05
2022-09-15T05:05:58.564Z,18.99
2022-09-15T05:06:58.540Z,19.10
2022-09-15T05:07:58.544Z,19.15
2022-09-15T05:08:58.571Z,19.12
2022-09-15T05:09:58.469Z,19.06
2022-09-15T05:10:58.503Z,19.06
2022-09-15T05:11:58.456Z,19.06
2022-09-15T05:12:58.507Z,19.09
2022-09-15T05:13:58.478Z,19.13
2022-09-15T05:14:58.420Z,19.13
2022-09-15T05:15:58.469Z,19.13
2022-09-15T05:16:58.405Z,19.05
2022-09-15T05:17:58.405Z,19.15
2022-09-15T05:18:58.388Z,19.09
2022-09-15T05:19:58.389Z,19.13
2022-09-15T05:20:58.414Z,19.05
2022-09-15T05:21:58.375Z,19.09
2022-09-15T05:22:58.329Z,19.13
2022-09-15T05:23:58.389Z,19.13
2022-09-15T05:24:58.318Z,19.10
2022-09-15T05:25:58.294Z,18.99
2022-09-15T05:26:58.279Z,18.99
2022-09-15T05:27:58.275Z,19.05
2022-09-15T05:28:58.318Z,18.91
2022-09-15T05:30:23.462Z,18.91
2022-09-15T05:30:59.296Z,18.86
2022-09-15T05:31:58.262Z,18.82
2022-09-15T05:32:58.261Z,18.78
2022-09-15T05:33:58.255Z,18.75
2022-09-15T05:34:58.271Z,18.83
2022-09-15T05:35:58.278Z,18.69
2022-09-15T05:36:58.175Z,18.62
2022-09-15T05:37:58.160Z,18.71
2022-09-15T05:38:58.169Z,18.62
2022-09-15T05:39:58.172Z,18.65
2022-09-15T05:40:58.155Z,18.66
2022-09-15T05:41:58.134Z,18.56
2022-09-15T05:42:58.120Z,18.53
2022-09-15T05:43:58.171Z,18.53
2022-09-15T05:44:58.182Z,18.53
2022-09-15T05:45:58.077Z,18.53
2022-09-15T05:46:58.125Z,18.56
2022-09-15T05:47:58.050Z,18.53
2022-09-15T05:48:58.092Z,18.51
2022-09-15T05:49:58.056Z,18.64
2022-09-15T05:50:58.090Z,18.56
2022-09-15T05:51:58.008Z,18.65
2022-09-15T05:52:57.996Z,18.53
2022-09-15T05:53:58.077Z,18.60
2022-09-15T05:54:59.327Z,18.62
2022-09-15T05:55:57.967Z,18.62
2022-09-15T05:56:57.956Z,18.64
2022-09-15T05:57:58.026Z,18.60
2022-09-15T05:58:58.105Z,18.59
2022-09-15T05:59:57.984Z,18.56
2022-09-15T06:00:57.921Z,18.60
2022-09-15T06:01:58.031Z,18.60
2022-09-15T06:02:57.923Z,18.72
2022-09-15T06:03:58.017Z,18.65
2022-09-15T06:04:57.865Z,18.75
2022-09-15T06:05:57.874Z,18.64
2022-09-15T06:06:57.864Z,18.62
2022-09-15T06:07:57.860Z,18.56
2022-09-15T06:08:59.193Z,18.57
2022-09-15T06:09:57.810Z,18.56
2022-09-15T06:10:57.801Z,18.56
2022-09-15T06:11:57.792Z,18.56
2022-09-15T06:12:57.773Z,18.60
2022-09-15T06:13:57.947Z,18.59
2022-09-15T06:14:57.756Z,18.60
2022-09-15T06:15:57.796Z,18.65
2022-09-15T06:16:57.727Z,18.71
2022-09-15T06:17:57.734Z,18.59
2022-09-15T06:18:57.725Z,18.66
2022-09-15T06:19:57.739Z,18.64
2022-09-15T06:20:57.688Z,18.65
2022-09-15T06:21:57.745Z,18.68
2022-09-15T06:22:57.672Z,18.74
2022-09-15T06:23:57.724Z,18.74
2022-09-15T06:24:57.647Z,18.74
2022-09-15T06:25:57.722Z,18.72
2022-09-15T06:26:57.658Z,18.76
2022-09-15T06:27:57.638Z,18.84
2022-09-15T06:28:57.615Z,18.75
2022-09-15T06:29:57.624Z,18.83
2022-09-15T06:30:57.577Z,18.84
2022-09-15T06:31:57.574Z,18.87
2022-09-15T06:32:57.594Z,18.96
2022-09-15T06:33:57.657Z,18.87
2022-09-15T06:34:57.533Z,18.93
2022-09-15T06:35:57.554Z,18.94
2022-09-15T06:36:57.505Z,19.02
2022-09-15T06:37:57.623Z,19.02
2022-09-15T06:38:57.515Z,19.10
2022-09-15T06:39:57.578Z,19.10
2022-09-15T06:40:57.468Z,19.05
2022-09-15T06:42:05.845Z,19.12
2022-09-15T06:42:58.463Z,19.15
2022-09-15T06:43:57.494Z,19.01
2022-09-15T06:44:57.462Z,19.09
2022-09-15T06:45:57.534Z,19.12
2022-09-15T06:46:57.395Z,19.12
2022-09-15T06:48:13.646Z,19.13
2022-09-15T06:48:58.381Z,19.07
2022-09-15T06:49:57.537Z,19.01
2022-09-15T06:50:57.363Z,19.10
2022-09-15T06:51:57.359Z,19.07
2022-09-15T06:52:57.419Z,19.02
2022-09-15T06:53:57.461Z,19.12
2022-09-15T06:54:57.354Z,19.16
2022-09-15T06:55:57.320Z,19.13
2022-09-15T06:56:57.352Z,19.21
2022-09-15T06:57:57.320Z,19.16
2022-09-15T06:58:57.269Z,19.21
2022-09-15T06:59:57.257Z,19.27
2022-09-15T07:00:57.321Z,19.28
2022-09-15T07:01:59.426Z,19.31
2022-09-15T07:02:57.594Z,19.34
2022-09-15T07:03:57.241Z,19.35
2022-09-15T07:04:57.252Z,19.40
2022-09-15T07:05:57.200Z,19.52
2022-09-15T07:06:57.310Z,19.62
2022-09-15T07:07:57.331Z,19.60
2022-09-15T07:08:57.161Z,19.71
2022-09-15T07:09:57.221Z,19.71
2022-09-15T07:10:57.240Z,19.79
2022-09-15T07:11:57.154Z,19.89
2022-09-15T07:12:57.141Z,19.86
2022-09-15T07:13:57.175Z,19.83
2022-09-15T07:14:57.133Z,19.89
2022-09-15T07:15:57.177Z,19.82
2022-09-15T07:16:57.083Z,19.82
2022-09-15T07:17:57.086Z,19.92
2022-09-15T07:18:57.049Z,19.90
2022-09-15T07:19:57.048Z,19.75
2022-09-15T07:20:57.052Z,19.76
2022-09-15T07:21:57.048Z,19.68
2022-09-15T07:22:57.010Z,19.70
2022-09-15T07:23:57.059Z,19.65
2022-09-15T07:24:56.981Z,19.61
2022-09-15T07:25:56.998Z,19.58
2022-09-15T07:26:56.968Z,19.50
2022-09-15T07:27:57.002Z,19.52
2022-09-15T07:28:56.995Z,19.50
2022-09-15T07:29:56.929Z,19.60
2022-09-15T07:30:56.933Z,19.50
2022-09-15T07:31:56.940Z,19.58
2022-09-15T07:32:56.927Z,19.67
2022-09-15T07:33:56.896Z,19.49
2022-09-15T07:34:58.459Z,19.61
2022-09-15T07:35:56.881Z,19.67
2022-09-15T07:36:56.863Z,19.87
2022-09-15T07:37:56.843Z,19.92
2022-09-15T07:38:57.014Z,19.95
2022-09-15T07:39:56.922Z,19.85
2022-09-15T07:40:56.867Z,20.01
2022-09-15T07:41:56.822Z,19.94
2022-09-15T07:42:56.843Z,19.95
2022-09-15T07:43:56.774Z,20.07
2022-09-15T07:44:56.841Z,20.15
2022-09-15T07:45:56.850Z,20.08
2022-09-15T07:46:56.786Z,20.17
2022-09-15T07:47:56.747Z,20.22
2022-09-15T07:48:56.745Z,20.34
2022-09-15T07:49:56.759Z,20.51
2022-09-15T07:50:56.776Z,20.58
2022-09-15T07:51:56.704Z,20.60
2022-09-15T07:52:56.795Z,20.68
2022-09-15T07:53:57.335Z,20.90
2022-09-15T07:54:56.666Z,20.88
2022-09-15T07:55:56.676Z,21.05
2022-09-15T07:56:56.719Z,21.58
2022-09-15T07:57:56.697Z,21.77
2022-09-15T07:58:56.656Z,21.83
2022-09-15T07:59:56.628Z,21.96
2022-09-15T08:00:56.704Z,21.86
2022-09-15T08:01:56.681Z,21.93
2022-09-15T08:02:56.718Z,21.89
2022-09-15T08:03:56.581Z,22.08
2022-09-15T08:04:56.564Z,22.56
2022-09-15T08:05:56.543Z,23.09
2022-09-15T08:06:56.602Z,22.96
2022-09-15T08:07:56.611Z,22.78
2022-09-15T08:09:00.351Z,22.51
2022-09-15T08:09:56.500Z,22.23
2022-09-15T08:10:56.540Z,21.90
2022-09-15T08:11:56.465Z,21.58
2022-09-15T08:12:56.561Z,21.18
2022-09-15T08:13:56.466Z,21.00
2022-09-15T08:14:56.437Z,20.94
2022-09-15T08:15:56.507Z,20.76
2022-09-15T08:16:56.448Z,20.72
2022-09-15T08:17:56.421Z,20.56
2022-09-15T08:18:56.452Z,20.57
2022-09-15T08:19:56.382Z,20.40
2022-09-15T08:20:56.375Z,20.27
2022-09-15T08:21:56.379Z,20.25
2022-09-15T08:22:56.522Z,20.22
2022-09-15T08:23:56.476Z,20.05
2022-09-15T08:24:56.350Z,19.97
2022-09-15T08:25:56.374Z,19.86
2022-09-15T08:26:56.331Z,19.83
2022-09-15T08:27:56.355Z,19.87
2022-09-15T08:28:56.321Z,19.95
2022-09-15T08:29:56.314Z,19.89
2022-09-15T08:30:56.323Z,19.86
2022-09-15T08:31:56.299Z,19.86
2022-09-15T08:32:56.281Z,19.87
2022-09-15T08:33:56.503Z,19.98
2022-09-15T08:34:56.217Z,19.82
2022-09-15T08:35:56.220Z,19.85
2022-09-15T08:36:56.191Z,19.85
2022-09-15T08:37:56.189Z,19.92
2022-09-15T08:38:56.280Z,19.85
2022-09-15T08:39:56.266Z,19.85
2022-09-15T08:40:56.185Z,19.82
2022-09-15T08:41:56.139Z,19.86
2022-09-15T08:42:56.143Z,19.85
2022-09-15T08:43:56.119Z,19.90
2022-09-15T08:44:56.191Z,19.85
2022-09-15T08:45:56.148Z,19.94
2022-09-15T08:46:56.151Z,20.00
2022-09-15T08:47:56.086Z,19.94
2022-09-15T08:48:59.595Z,19.98
2022-09-15T08:49:57.138Z,20.12
2022-09-15T08:50:56.057Z,20.07
2022-09-15T08:51:56.060Z,20.16
2022-09-15T08:52:56.018Z,20.17
2022-09-15T08:53:56.038Z,20.12
2022-09-15T08:54:56.080Z,20.16
2022-09-15T08:55:56.003Z,20.16
2022-09-15T08:56:55.978Z,20.04
2022-09-15T08:57:55.996Z,19.90
2022-09-15T08:58:55.954Z,20.01
2022-09-15T08:59:55.980Z,19.92
2022-09-15T09:00:55.937Z,19.97
2022-09-15T09:01:56.038Z,19.92
2022-09-15T09:02:56.072Z,20.05
2022-09-15T09:03:55.900Z,20.08
2022-09-15T09:04:55.924Z,20.15
2022-09-15T09:05:55.886Z,20.19
2022-09-15T09:06:55.867Z,20.20
2022-09-15T09:07:55.886Z,20.16
2022-09-15T09:08:55.871Z,20.17
2022-09-15T09:09:55.843Z,20.20
2022-09-15T09:10:55.844Z,20.13
2022-09-15T09:11:55.853Z,20.16
2022-09-15T09:12:55.815Z,20.19
2022-09-15T09:13:55.836Z,20.16
2022-09-15T09:14:55.777Z,20.12
2022-09-15T09:15:55.970Z,20.19
2022-09-15T09:16:55.835Z,20.15
2022-09-15T09:17:55.764Z,20.10
2022-09-15T09:18:55.746Z,20.10
2022-09-15T09:19:55.728Z,19.98
2022-09-15T09:20:55.758Z,19.95
2022-09-15T09:21:55.784Z,19.98
2022-09-15T09:22:55.692Z,19.83
2022-09-15T09:23:55.747Z,19.89
2022-09-15T09:24:55.735Z,19.82
2022-09-15T09:25:55.714Z,19.83
2022-09-15T09:26:55.671Z,19.83
2022-09-15T09:27:55.665Z,19.75
2022-09-15T09:28:55.668Z,19.75
2022-09-15T09:29:55.610Z,19.83
2022-09-15T09:30:55.693Z,19.79
2022-09-15T09:31:55.639Z,19.85
2022-09-15T09:32:55.596Z,19.86
2022-09-15T09:33:55.807Z,19.86
2022-09-15T09:34:55.589Z,19.85
2022-09-15T09:35:55.607Z,20.02
2022-09-15T09:36:55.537Z,20.02
2022-09-15T09:37:55.553Z,20.01
2022-09-15T09:38:55.548Z,20.05
2022-09-15T09:39:55.657Z,20.02
2022-09-15T09:40:59.847Z,19.97
2022-09-15T09:41:56.544Z,20.07
2022-09-15T09:42:55.485Z,20.12
2022-09-15T09:43:55.538Z,20.12
2022-09-15T09:44:55.446Z,20.17
2022-09-15T09:45:55.495Z,20.26
2022-09-15T09:46:55.442Z,20.31
2022-09-15T09:47:59.458Z,20.41
2022-09-15T09:48:56.410Z,20.35
2022-09-15T09:49:55.470Z,20.44
2022-09-15T09:50:55.399Z,20.44
2022-09-15T09:51:55.395Z,20.37
2022-09-15T09:52:55.368Z,20.37
2022-09-15T09:53:55.394Z,20.34
2022-09-15T09:54:55.362Z,20.22
2022-09-15T09:55:55.342Z,20.27
2022-09-15T09:56:55.352Z,20.15
2022-09-15T09:57:55.307Z,20.19
2022-09-15T09:58:55.386Z,20.16
2022-09-15T09:59:55.337Z,20.22
2022-09-15T10:00:55.311Z,20.30
2022-09-15T10:01:55.310Z,20.38
2022-09-15T10:02:55.256Z,20.53
2022-09-15T10:03:55.284Z,20.72
2022-09-15T10:04:55.375Z,20.73
2022-09-15T10:05:55.233Z,20.73
2022-09-15T10:06:55.264Z,20.81
2022-09-15T10:07:55.226Z,20.81
2022-09-15T10:08:55.227Z,20.78
2022-09-15T10:09:55.205Z,20.83
2022-09-15T10:10:55.176Z,20.73
2022-09-15T10:11:55.160Z,20.71
2022-09-15T10:12:55.220Z,20.48
2022-09-15T10:13:55.156Z,20.57
2022-09-15T10:14:55.122Z,20.63
2022-09-15T10:15:55.147Z,20.66
2022-09-15T10:16:55.155Z,20.66
2022-09-15T10:17:55.200Z,20.54
2022-09-15T10:18:55.085Z,20.50
2022-09-15T10:19:55.068Z,20.60
2022-09-15T10:20:55.186Z,20.51
2022-09-15T10:21:55.068Z,20.66
2022-09-15T10:22:55.115Z,20.71
2022-09-15T10:23:55.023Z,20.75
2022-09-15T10:24:55.011Z,20.90
2022-09-15T10:25:59.516Z,20.97
2022-09-15T10:26:56.044Z,20.94
2022-09-15T10:27:54.998Z,20.97
2022-09-15T10:28:55.122Z,21.00
2022-09-15T10:29:54.956Z,21.05
2022-09-15T10:30:54.967Z,21.22
2022-09-15T10:31:55.039Z,21.18
2022-09-15T10:32:54.947Z,21.18
2022-09-15T10:33:54.928Z,21.21
2022-09-15T10:34:54.933Z,21.03
2022-09-15T10:35:54.905Z,21.00
2022-09-15T10:36:54.894Z,20.93
2022-09-15T10:37:54.949Z,20.93
2022-09-15T10:38:54.900Z,21.05
2022-09-15T10:39:54.998Z,21.15
2022-09-15T10:40:54.862Z,21.26
2022-09-15T10:41:54.818Z,21.24
2022-09-15T10:42:54.905Z,21.49
2022-09-15T10:43:54.855Z,21.64
2022-09-15T10:44:54.792Z,21.79
2022-09-15T10:45:54.966Z,21.94
2022-09-15T10:46:54.810Z,21.96
2022-09-15T10:47:54.764Z,22.06
2022-09-15T10:48:54.762Z,22.06
2022-09-15T10:49:54.772Z,22.09
2022-09-15T10:50:54.752Z,22.15
2022-09-15T10:51:54.715Z,22.02
2022-09-15T10:52:54.765Z,21.90
2022-09-15T10:53:57.469Z,21.85
2022-09-15T10:54:54.681Z,21.73
2022-09-15T10:55:54.678Z,21.68
2022-09-15T10:56:54.688Z,21.46
2022-09-15T10:57:54.679Z,21.48
2022-09-15T10:58:54.758Z,21.36
2022-09-15T10:59:54.645Z,21.28
2022-09-15T11:00:54.754Z,21.26
2022-09-15T11:01:54.672Z,21.30
2022-09-15T11:02:54.699Z,21.19
2022-09-15T11:03:54.631Z,21.00
2022-09-15T11:04:54.644Z,21.00
2022-09-15T11:05:54.583Z,20.91
2022-09-15T11:06:54.567Z,21.00
2022-09-15T11:07:54.606Z,21.00
2022-09-15T11:08:54.541Z,21.03
2022-09-15T11:09:54.533Z,20.98
2022-09-15T11:10:54.530Z,20.97
2022-09-15T11:11:54.496Z,20.88
2022-09-15T11:12:54.558Z,20.79
2022-09-15T11:13:54.475Z,20.75
2022-09-15T11:14:54.504Z,20.60
2022-09-15T11:15:54.470Z,20.50
2022-09-15T11:16:54.440Z,20.40
2022-09-15T11:17:54.461Z,20.41
2022-09-15T11:18:54.429Z,20.23
2022-09-15T11:19:54.452Z,20.19
2022-09-15T11:20:54.408Z,20.08
2022-09-15T11:21:54.387Z,20.15
2022-09-15T11:22:54.419Z,20.00
2022-09-15T11:23:54.375Z,19.97
2022-09-15T11:24:54.396Z,19.98
2022-09-15T11:25:54.374Z,19.87
2022-09-15T11:26:54.331Z,19.86
2022-09-15T11:27:54.330Z,19.90
2022-09-15T11:28:54.420Z,19.75
2022-09-15T11:29:54.332Z,19.71
2022-09-15T11:30:54.326Z,19.72
2022-09-15T11:31:54.395Z,19.70
2022-09-15T11:32:57.244Z,19.68
2022-09-15T11:33:54.255Z,19.60
2022-09-15T11:34:54.294Z,19.52
2022-09-15T11:35:54.274Z,19.46
2022-09-15T11:36:54.227Z,19.47
2022-09-15T11:37:54.210Z,19.49
2022-09-15T11:38:54.287Z,19.50
2022-09-15T11:39:54.279Z,19.47
2022-09-15T11:40:54.181Z,19.50
2022-09-15T11:41:54.187Z,19.55
2022-09-15T11:42:54.168Z,19.45
2022-09-15T11:43:54.162Z,19.46
2022-09-15T11:44:54.140Z,19.46
2022-09-15T11:45:54.146Z,19.47
2022-09-15T11:46:54.155Z,19.31
2022-09-15T11:47:54.103Z,19.34
2022-09-15T11:48:54.109Z,19.24
2022-09-15T11:49:54.202Z,19.25
2022-09-15T11:50:54.085Z,19.21
2022-09-15T11:51:54.053Z,19.12
2022-09-15T11:52:54.077Z,19.09
2022-09-15T11:53:54.151Z,19.06
2022-09-15T11:54:54.037Z,18.68
2022-09-15T11:55:54.018Z,18.65
2022-09-15T11:56:54.013Z,18.38
2022-09-15T11:57:54.002Z,18.07
2022-09-15T11:58:54.089Z,17.98
2022-09-15T11:59:53.967Z,17.74
2022-09-15T12:00:53.955Z,17.60
2022-09-15T12:01:53.985Z,17.42
2022-09-15T12:02:53.961Z,17.30
2022-09-15T12:03:53.980Z,17.32
2022-09-15T12:04:53.922Z,17.28
2022-09-15T12:05:53.943Z,17.22
2022-09-15T12:06:53.978Z,17.32
2022-09-15T12:07:53.918Z,17.33
2022-09-15T12:08:53.991Z,17.30
2022-09-15T12:09:53.873Z,17.36
2022-09-15T12:10:53.882Z,17.33
2022-09-15T12:11:53.867Z,17.42
2022-09-15T12:12:53.940Z,17.40
2022-09-15T12:13:53.877Z,17.46
2022-09-15T12:14:53.812Z,17.55
2022-09-15T12:15:53.859Z,17.54
2022-09-15T12:16:53.795Z,17.55
2022-09-15T12:17:53.795Z,17.49
2022-09-15T12:18:53.791Z,17.54
2022-09-15T12:19:53.745Z,17.53
2022-09-15T12:20:53.748Z,17.53
2022-09-15T12:21:53.721Z,17.53
2022-09-15T12:22:53.765Z,17.40
2022-09-15T12:23:53.716Z,17.36
2022-09-15T12:24:54.827Z,17.42
2022-09-15T12:25:53.711Z,17.53
2022-09-15T12:26:53.683Z,17.66
2022-09-15T12:27:53.703Z,17.65
2022-09-15T12:28:53.696Z,17.76
2022-09-15T12:29:53.674Z,17.71
2022-09-15T12:30:53.684Z,17.76
2022-09-15T12:31:53.632Z,17.91
2022-09-15T12:32:53.636Z,17.74
2022-09-15T12:33:53.708Z,17.86
2022-09-15T12:34:53.635Z,17.76
2022-09-15T12:35:53.616Z,17.84
2022-09-15T12:36:53.635Z,18.01
2022-09-15T12:37:53.587Z,17.96
2022-09-15T12:38:53.638Z,17.86
2022-09-15T12:39:53.607Z,17.89
2022-09-15T12:40:53.646Z,17.86
2022-09-15T12:41:53.546Z,18.02
2022-09-15T12:42:53.527Z,18.04
2022-09-15T12:43:53.567Z,18.04
2022-09-15T12:44:53.475Z,18.19
2022-09-15T12:45:53.509Z,18.13
2022-09-15T12:46:53.573Z,18.10
2022-09-15T12:47:53.494Z,18.09
2022-09-15T12:48:53.455Z,18.01
2022-09-15T12:49:53.415Z,18.02
2022-09-15T12:50:53.483Z,17.95
2022-09-15T12:51:53.430Z,17.91